ACA1258 KMCO-CYHZ
Flight info
| Callsign | ACA1258 |
|---|---|
| Flight time | N/A |
| Altitude | 33000 |
| Route | FATHE4 VIYAP Q87 JROSS DCT ELLDE Q97 PAACK DCT JAMIE/N0455F350 DCT CONFR Q133 JFK DCT FEXXX DCT VENTE Q97 BEEKN DCT ENE Q822 ALLEX FUNDY5 |
| Aircraft | B738/M-SDE2E3FGHIRWXY/LB1 |
Departure
| Time | 2026-05-05 20:18 |
|---|---|
| Airport | Orlando International Airport (KMCO) |
Arrival
| Time | N/A |
|---|---|
| Airport | Halifax / Stanfield International Airport (CYHZ) |
| Time | Latitude | Longitude | Altitude | Speed | Heading |
|---|---|---|---|---|---|
| 2026-05-05 19:38 | 28.42670 | -81.30353 | 102 ft | 0 kts | 37° |
| 2026-05-05 20:05 | 28.42667 | -81.30355 | 102 ft | 3 kts | 39° |
| 2026-05-05 20:05 | 28.42658 | -81.30375 | 102 ft | 4 kts | 68° |
| 2026-05-05 20:05 | 28.42645 | -81.30401 | 102 ft | 4 kts | 62° |
| 2026-05-05 20:06 | 28.42635 | -81.30429 | 102 ft | 4 kts | 83° |
| 2026-05-05 20:06 | 28.42639 | -81.30454 | 101 ft | 4 kts | 141° |
| 2026-05-05 20:06 | 28.42643 | -81.30457 | 101 ft | 1 kts | 149° |
| 2026-05-05 20:09 | 28.42634 | -81.30451 | 101 ft | 3 kts | 147° |
| 2026-05-05 20:09 | 28.42608 | -81.30428 | 100 ft | 7 kts | 138° |
| 2026-05-05 20:10 | 28.42551 | -81.30403 | 99 ft | 11 kts | 177° |
| 2026-05-05 20:10 | 28.42462 | -81.30401 | 99 ft | 14 kts | 179° |
| 2026-05-05 20:10 | 28.42354 | -81.30400 | 99 ft | 16 kts | 180° |
| 2026-05-05 20:10 | 28.42278 | -81.30352 | 100 ft | 13 kts | 105° |
| 2026-05-05 20:11 | 28.42277 | -81.30250 | 101 ft | 13 kts | 89° |
| 2026-05-05 20:11 | 28.42278 | -81.30151 | 101 ft | 13 kts | 89° |
| 2026-05-05 20:11 | 28.42279 | -81.30053 | 102 ft | 12 kts | 90° |
| 2026-05-05 20:11 | 28.42279 | -81.29958 | 103 ft | 12 kts | 90° |
| 2026-05-05 20:12 | 28.42277 | -81.29857 | 103 ft | 13 kts | 101° |
| 2026-05-05 20:12 | 28.42215 | -81.29793 | 101 ft | 13 kts | 172° |
| 2026-05-05 20:12 | 28.42127 | -81.29791 | 101 ft | 13 kts | 180° |
| 2026-05-05 20:12 | 28.42030 | -81.29790 | 101 ft | 15 kts | 179° |
| 2026-05-05 20:13 | 28.41922 | -81.29788 | 100 ft | 13 kts | 179° |
| 2026-05-05 20:13 | 28.41843 | -81.29787 | 101 ft | 10 kts | 179° |
| 2026-05-05 20:13 | 28.41770 | -81.29787 | 101 ft | 12 kts | 181° |
| 2026-05-05 20:13 | 28.41682 | -81.29787 | 101 ft | 14 kts | 179° |
| 2026-05-05 20:14 | 28.41576 | -81.29785 | 101 ft | 17 kts | 179° |
| 2026-05-05 20:14 | 28.41453 | -81.29784 | 100 ft | 18 kts | 179° |
| 2026-05-05 20:14 | 28.41327 | -81.29783 | 100 ft | 18 kts | 179° |
| 2026-05-05 20:14 | 28.41205 | -81.29782 | 98 ft | 17 kts | 179° |
| 2026-05-05 20:15 | 28.41087 | -81.29780 | 98 ft | 17 kts | 180° |
| 2026-05-05 20:15 | 28.40975 | -81.29779 | 97 ft | 16 kts | 180° |
| 2026-05-05 20:15 | 28.40877 | -81.29778 | 99 ft | 13 kts | 178° |
| 2026-05-05 20:15 | 28.40823 | -81.29728 | 98 ft | 9 kts | 102° |
| 2026-05-05 20:16 | 28.40821 | -81.29655 | 99 ft | 9 kts | 86° |
| 2026-05-05 20:16 | 28.40830 | -81.29585 | 98 ft | 9 kts | 65° |
| 2026-05-05 20:16 | 28.40877 | -81.29561 | 96 ft | 0 kts | 0° |
| 2026-05-05 20:17 | 28.40918 | -81.29560 | 98 ft | 24 kts | 0° |
| 2026-05-05 20:17 | 28.41333 | -81.29564 | 102 ft | 94 kts | 360° |
| 2026-05-05 20:17 | 28.42195 | -81.29574 | 99 ft | 153 kts | 359° |
| 2026-05-05 20:17 | 28.43372 | -81.29580 | 358 ft | 180 kts | 0° |
| 2026-05-05 20:18 | 28.44644 | -81.29599 | 1096 ft | 183 kts | 6° |
| 2026-05-05 20:18 | 28.45791 | -81.29104 | 1858 ft | 178 kts | 39° |
| 2026-05-05 20:18 | 28.46920 | -81.28312 | 2204 ft | 205 kts | 32° |
| 2026-05-05 20:18 | 28.48229 | -81.27461 | 2416 ft | 229 kts | 32° |
| 2026-05-05 20:19 | 28.49651 | -81.26525 | 2813 ft | 243 kts | 32° |
| 2026-05-05 20:19 | 28.51196 | -81.25548 | 3123 ft | 263 kts | 23° |
| 2026-05-05 20:19 | 28.53011 | -81.25191 | 3912 ft | 267 kts | 5° |
| 2026-05-05 20:19 | 28.54879 | -81.25075 | 4724 ft | 271 kts | 3° |
| 2026-05-05 20:20 | 28.56751 | -81.25094 | 5500 ft | 274 kts | 358° |
| 2026-05-05 20:20 | 28.58671 | -81.25219 | 6231 ft | 278 kts | 354° |
| 2026-05-05 20:20 | 28.60605 | -81.25513 | 6820 ft | 282 kts | 351° |
| 2026-05-05 20:20 | 28.62559 | -81.25853 | 6967 ft | 285 kts | 351° |
| 2026-05-05 20:21 | 28.64540 | -81.26161 | 7343 ft | 288 kts | 352° |
| 2026-05-05 20:21 | 28.66530 | -81.26441 | 8100 ft | 289 kts | 352° |
| 2026-05-05 20:21 | 28.68543 | -81.26717 | 8818 ft | 292 kts | 352° |
| 2026-05-05 20:21 | 28.70544 | -81.26989 | 9537 ft | 296 kts | 352° |
| 2026-05-05 20:22 | 28.72594 | -81.27269 | 10266 ft | 298 kts | 352° |
| 2026-05-05 20:22 | 28.74703 | -81.27558 | 10559 ft | 316 kts | 351° |
| 2026-05-05 20:22 | 28.76970 | -81.27869 | 10727 ft | 338 kts | 351° |
| 2026-05-05 20:22 | 28.79374 | -81.28197 | 10890 ft | 358 kts | 351° |
| 2026-05-05 20:23 | 28.81909 | -81.28544 | 11053 ft | 376 kts | 351° |
| 2026-05-05 20:23 | 28.84553 | -81.28902 | 11288 ft | 388 kts | 352° |
| 2026-05-05 20:23 | 28.87266 | -81.29174 | 11762 ft | 394 kts | 354° |
| 2026-05-05 20:23 | 28.90013 | -81.29385 | 12327 ft | 396 kts | 354° |
| 2026-05-05 20:24 | 28.92722 | -81.29587 | 12956 ft | 396 kts | 354° |
| 2026-05-05 20:24 | 28.95479 | -81.29809 | 13535 ft | 397 kts | 353° |